createdAt,value
2019-01-23T00:00:56.718Z,29.37
2019-01-23T00:03:26.118Z,29.40
2019-01-23T00:05:55.476Z,28.17
2019-01-23T00:08:24.856Z,29.10
2019-01-23T00:10:54.215Z,30.87
2019-01-23T00:13:23.610Z,29.43
2019-01-23T00:15:52.994Z,29.93
2019-01-23T00:18:22.375Z,29.97
2019-01-23T00:20:51.748Z,29.07
2019-01-23T00:23:21.131Z,29.50
2019-01-23T00:25:50.522Z,29.27
2019-01-23T00:28:19.894Z,30.03
2019-01-23T00:30:49.281Z,30.93
2019-01-23T00:33:23.143Z,33.63
2019-01-23T00:35:52.571Z,30.30
2019-01-23T00:38:21.934Z,30.63
2019-01-23T00:40:51.362Z,30.97
2019-01-23T00:43:20.755Z,30.10
2019-01-23T00:45:50.120Z,28.87
2019-01-23T00:48:19.513Z,31.40
2019-01-23T00:50:48.894Z,30.97
2019-01-23T00:53:18.272Z,30.13
2019-01-23T00:55:47.650Z,31.10
2019-01-23T00:58:17.034Z,31.63
2019-01-23T01:00:46.423Z,30.97
2019-01-23T01:03:15.796Z,32.50
2019-01-23T01:05:45.179Z,31.83
2019-01-23T01:08:14.531Z,31.90
2019-01-23T01:10:43.850Z,32.77
2019-01-23T01:13:13.376Z,29.57
2019-01-23T01:15:42.797Z,30.20
2019-01-23T01:18:12.170Z,32.23
2019-01-23T01:20:41.684Z,31.43
2019-01-23T01:23:11.193Z,30.70
2019-01-23T01:25:40.693Z,33.70
2019-01-23T01:28:10.117Z,31.27
2019-01-23T01:30:39.515Z,32.17
2019-01-23T01:33:08.896Z,31.67
2019-01-23T01:35:38.274Z,31.43
2019-01-23T01:38:07.658Z,32.27
2019-01-23T01:40:37.040Z,31.53
2019-01-23T01:43:08.048Z,31.57
2019-01-23T01:45:37.441Z,31.00
2019-01-23T01:48:06.807Z,31.43
2019-01-23T01:50:36.183Z,32.20
2019-01-23T01:53:05.689Z,31.90
2019-01-23T01:55:35.051Z,31.77
2019-01-23T01:58:04.680Z,32.50
2019-01-23T02:00:34.056Z,31.17
2019-01-23T02:03:03.803Z,32.13
2019-01-23T02:05:33.171Z,33.47
2019-01-23T02:08:02.576Z,32.30
2019-01-23T02:10:31.867Z,33.23
2019-01-23T02:13:01.234Z,32.77
2019-01-23T02:15:30.636Z,33.67
2019-01-23T02:18:00.030Z,34.37
2019-01-23T02:20:29.550Z,35.27
2019-01-23T02:22:58.980Z,31.43
2019-01-23T02:25:28.374Z,32.20
2019-01-23T02:27:58.145Z,33.63
2019-01-23T02:30:27.647Z,35.00
2019-01-23T02:32:57.099Z,34.23
2019-01-23T02:35:26.488Z,32.77
2019-01-23T02:37:55.988Z,33.93
2019-01-23T02:40:25.357Z,34.17
2019-01-23T02:42:54.843Z,34.63
2019-01-23T02:45:24.427Z,34.77
2019-01-23T02:47:53.905Z,34.50
2019-01-23T02:50:23.206Z,34.97
2019-01-23T02:52:52.650Z,34.13
2019-01-23T02:55:22.024Z,35.93
2019-01-23T02:57:51.387Z,34.00
2019-01-23T03:00:23.727Z,33.90
2019-01-23T03:02:53.222Z,34.33
2019-01-23T03:05:22.696Z,33.57
2019-01-23T03:07:52.074Z,35.23
2019-01-23T03:10:21.640Z,33.30
2019-01-23T03:12:51.097Z,35.00
2019-01-23T03:15:20.526Z,34.23
2019-01-23T03:17:49.915Z,33.67
2019-01-23T03:20:20.022Z,34.00
2019-01-23T03:22:49.399Z,33.27
2019-01-23T03:25:19.107Z,33.00
2019-01-23T03:27:48.619Z,34.27
2019-01-23T03:30:20.146Z,35.10
2019-01-23T03:32:49.663Z,34.33
2019-01-23T03:35:19.068Z,36.67
2019-01-23T03:37:48.503Z,34.80
2019-01-23T03:40:19.718Z,34.77
2019-01-23T03:42:49.175Z,33.70
2019-01-23T03:45:18.686Z,33.50
2019-01-23T03:47:48.184Z,33.97
2019-01-23T03:50:18.907Z,32.23
2019-01-23T03:52:48.513Z,34.77
2019-01-23T03:55:19.214Z,35.03
2019-01-23T03:57:48.658Z,34.00
2019-01-23T04:00:19.857Z,35.47
2019-01-23T04:02:50.875Z,34.27
2019-01-23T04:05:20.384Z,32.87
2019-01-23T04:07:49.847Z,34.73
2019-01-23T04:10:19.483Z,34.37
2019-01-23T04:12:48.843Z,37.03
2019-01-23T04:15:18.569Z,34.97
2019-01-23T04:17:48.073Z,36.33
2019-01-23T04:20:19.522Z,37.17
2019-01-23T04:22:49.024Z,34.77
2019-01-23T04:25:18.538Z,36.90
2019-01-23T04:27:47.996Z,35.87
2019-01-23T04:30:19.409Z,37.57
2019-01-23T04:32:48.807Z,36.53
2019-01-23T04:35:18.319Z,36.93
2019-01-23T04:37:47.873Z,37.47
2019-01-23T04:40:17.238Z,36.07
2019-01-23T04:42:46.727Z,38.20
2019-01-23T04:45:17.260Z,35.67
2019-01-23T04:47:46.607Z,34.23
2019-01-23T04:50:17.536Z,35.33
2019-01-23T04:52:53.221Z,34.97
2019-01-23T04:55:22.661Z,35.23
2019-01-23T04:57:52.040Z,35.23
2019-01-23T05:00:23.136Z,35.17
2019-01-23T05:02:54.128Z,33.17
2019-01-23T05:05:23.572Z,35.00
2019-01-23T05:07:52.937Z,35.60
2019-01-23T05:10:22.326Z,33.30
2019-01-23T05:12:51.699Z,33.37
2019-01-23T05:15:21.234Z,34.33
2019-01-23T05:17:50.628Z,33.73
2019-01-23T05:20:20.028Z,34.20
2019-01-23T05:22:52.115Z,34.97
2019-01-23T05:25:21.595Z,33.63
2019-01-23T05:27:50.996Z,34.83
2019-01-23T05:30:22.511Z,34.20
2019-01-23T05:32:51.981Z,34.73
2019-01-23T05:35:21.422Z,35.43
2019-01-23T05:37:50.861Z,36.07
2019-01-23T05:40:20.291Z,35.97
2019-01-23T05:42:49.655Z,35.90
2019-01-23T05:45:19.135Z,34.10
2019-01-23T05:47:48.504Z,34.83
2019-01-23T05:50:20.300Z,36.67
2019-01-23T05:52:49.666Z,35.13
2019-01-23T05:55:19.094Z,36.27
2019-01-23T05:57:48.495Z,36.40
2019-01-23T06:00:20.460Z,35.13
2019-01-23T06:02:50.014Z,35.60
2019-01-23T06:05:20.145Z,36.13
2019-01-23T06:07:49.597Z,36.80
2019-01-23T06:10:19.040Z,35.47
2019-01-23T06:12:48.415Z,34.17
2019-01-23T06:15:17.869Z,36.13
2019-01-23T06:17:47.294Z,37.50
2019-01-23T06:20:18.915Z,39.20
2019-01-23T06:22:48.283Z,38.77
2019-01-23T06:25:17.830Z,39.80
2019-01-23T06:27:47.263Z,40.90
2019-01-23T06:30:24.518Z,38.37
2019-01-23T06:32:53.991Z,35.97
2019-01-23T06:35:23.443Z,36.90
2019-01-23T06:37:52.871Z,38.63
2019-01-23T06:40:22.355Z,39.77
2019-01-23T06:42:51.742Z,37.57
2019-01-23T06:45:21.165Z,39.63
2019-01-23T06:47:50.633Z,36.80
2019-01-23T06:50:21.355Z,35.23
2019-01-23T06:52:53.795Z,34.50
2019-01-23T06:55:23.287Z,34.37
2019-01-23T06:57:52.760Z,34.40
2019-01-23T07:00:23.392Z,34.80
2019-01-23T07:02:53.028Z,34.17
2019-01-23T07:05:22.665Z,34.63
2019-01-23T07:07:53.510Z,35.27
2019-01-23T07:10:24.348Z,34.30
2019-01-23T07:12:53.794Z,33.77
2019-01-23T07:15:23.190Z,34.13
2019-01-23T07:17:52.486Z,34.87
2019-01-23T07:20:25.032Z,33.93
2019-01-23T07:22:58.828Z,33.83
2019-01-23T07:25:28.332Z,33.63
2019-01-23T07:27:57.707Z,34.13
2019-01-23T07:30:32.955Z,34.47
2019-01-23T07:33:02.427Z,33.23
2019-01-23T07:35:31.977Z,35.13
2019-01-23T07:38:01.530Z,32.83
2019-01-23T07:40:30.833Z,33.13
2019-01-23T07:43:00.211Z,33.03
2019-01-23T07:45:29.639Z,32.80
2019-01-23T07:47:59.009Z,31.67
2019-01-23T07:50:28.387Z,31.63
2019-01-23T07:52:58.266Z,31.53
2019-01-23T07:55:27.635Z,30.43
2019-01-23T07:57:57.023Z,32.03
2019-01-23T08:00:31.334Z,33.03
2019-01-23T08:02:58.545Z,30.37
2019-01-23T08:05:27.995Z,29.93
2019-01-23T08:07:57.504Z,30.13
2019-01-23T08:10:26.887Z,32.30
2019-01-23T08:12:56.322Z,28.13
2019-01-23T08:15:28.362Z,30.07
2019-01-23T08:18:00.720Z,29.80
2019-01-23T08:20:32.948Z,30.67
2019-01-23T08:23:02.316Z,30.37
2019-01-23T08:25:31.696Z,31.23
2019-01-23T08:28:01.228Z,29.10
2019-01-23T08:30:30.765Z,29.43
2019-01-23T08:33:00.158Z,29.50
2019-01-23T08:35:29.533Z,33.67
2019-01-23T08:37:58.932Z,28.93
2019-01-23T08:40:28.363Z,29.93
2019-01-23T08:42:57.754Z,30.07
2019-01-23T08:45:27.115Z,29.57
2019-01-23T08:47:56.481Z,29.33
2019-01-23T08:50:28.658Z,29.77
2019-01-23T08:52:58.014Z,28.60
2019-01-23T08:55:27.353Z,42.77
2019-01-23T08:57:56.704Z,34.40
2019-01-23T09:00:26.235Z,31.70
2019-01-23T09:02:55.670Z,30.87
2019-01-23T09:05:25.237Z,34.23
2019-01-23T09:07:54.618Z,31.50
2019-01-23T09:10:25.820Z,33.27
2019-01-23T09:12:55.220Z,31.80
2019-01-23T09:15:24.651Z,31.37
2019-01-23T09:17:54.082Z,29.53
2019-01-23T09:20:23.842Z,30.13
2019-01-23T09:22:53.141Z,30.90
2019-01-23T09:25:25.322Z,31.67
2019-01-23T09:27:54.831Z,31.13
2019-01-23T09:30:26.941Z,30.33
2019-01-23T09:33:22.661Z,29.93
2019-01-23T09:35:57.907Z,32.03
2019-01-23T09:38:39.213Z,31.67
2019-01-23T09:41:14.079Z,31.53
2019-01-23T09:44:01.205Z,29.37
2019-01-23T09:46:36.537Z,32.20
2019-01-23T09:49:12.165Z,31.00
2019-01-23T09:52:15.734Z,30.10
2019-01-23T09:54:45.102Z,31.20
2019-01-23T09:57:14.479Z,31.00
2019-01-23T09:59:43.877Z,31.80
2019-01-23T10:02:13.320Z,29.90
2019-01-23T10:04:42.617Z,29.33
2019-01-23T10:07:12.001Z,30.80
2019-01-23T10:09:41.412Z,32.13
2019-01-23T10:12:10.892Z,33.00
2019-01-23T10:14:41.621Z,31.17
2019-01-23T10:17:11.038Z,31.70
2019-01-23T10:19:40.429Z,31.67
2019-01-23T10:22:09.853Z,32.00
2019-01-23T10:24:39.245Z,29.90
2019-01-23T10:27:08.614Z,30.47
2019-01-23T10:29:37.991Z,31.20
2019-01-23T10:32:07.351Z,30.40
2019-01-23T10:34:36.714Z,32.20
2019-01-23T10:37:07.895Z,31.87
2019-01-23T10:39:38.717Z,31.87
2019-01-23T10:42:08.208Z,30.87
2019-01-23T10:44:37.580Z,29.93
2019-01-23T10:47:06.960Z,31.77
2019-01-23T10:49:36.367Z,31.53
2019-01-23T10:52:05.743Z,30.50
2019-01-23T10:54:35.125Z,29.90
2019-01-23T10:57:04.741Z,29.13
2019-01-23T10:59:34.131Z,29.97
2019-01-23T11:02:03.566Z,29.50
2019-01-23T11:04:32.950Z,30.03
2019-01-23T11:07:03.139Z,28.77
2019-01-23T11:09:32.528Z,29.70
2019-01-23T11:12:01.885Z,28.37
2019-01-23T11:14:31.262Z,31.30
2019-01-23T11:17:00.646Z,27.87
2019-01-23T11:19:30.006Z,28.00
2019-01-23T11:22:00.918Z,28.57
2019-01-23T11:24:30.282Z,28.57
2019-01-23T11:26:59.677Z,27.57
2019-01-23T11:29:29.048Z,28.87
2019-01-23T11:31:58.409Z,27.77
2019-01-23T11:34:27.889Z,26.20
2019-01-23T11:36:57.370Z,26.67
2019-01-23T11:39:26.758Z,24.97
2019-01-23T11:41:56.121Z,23.50
2019-01-23T11:44:27.481Z,36.13
2019-01-23T11:46:57.081Z,26.20
2019-01-23T11:49:26.514Z,26.13
2019-01-23T11:51:55.895Z,25.60
2019-01-23T11:54:25.540Z,27.00
2019-01-23T11:56:58.170Z,25.27
2019-01-23T11:59:27.747Z,25.63
2019-01-23T12:01:57.318Z,26.47
2019-01-23T12:04:30.802Z,26.03
2019-01-23T12:07:00.484Z,27.03
2019-01-23T12:09:30.009Z,26.60
2019-01-23T12:12:04.319Z,25.90
2019-01-23T12:14:39.597Z,25.30
2019-01-23T12:17:09.918Z,25.87
2019-01-23T12:19:44.174Z,26.83
2019-01-23T12:22:16.050Z,26.30
2019-01-23T12:24:45.747Z,26.13
2019-01-23T12:27:15.246Z,26.67
2019-01-23T12:29:44.751Z,26.40
2019-01-23T12:32:14.124Z,26.27
2019-01-23T12:34:43.532Z,25.23
2019-01-23T12:37:13.428Z,26.47
2019-01-23T12:39:42.818Z,23.93
2019-01-23T12:42:12.254Z,27.73
2019-01-23T12:44:41.814Z,25.77
2019-01-23T12:47:11.204Z,25.40
2019-01-23T12:49:41.005Z,27.10
2019-01-23T12:52:10.480Z,27.13
2019-01-23T12:54:39.905Z,28.53
2019-01-23T12:57:09.291Z,28.73
2019-01-23T12:59:38.644Z,27.50
2019-01-23T13:02:09.829Z,30.23
2019-01-23T13:04:39.381Z,33.03
2019-01-23T13:07:08.771Z,31.23
2019-01-23T13:09:38.131Z,33.30
2019-01-23T13:12:07.509Z,38.73
2019-01-23T13:14:36.884Z,32.57
2019-01-23T13:17:06.254Z,46.70
2019-01-23T13:19:35.647Z,29.70
2019-01-23T13:22:08.057Z,32.37
2019-01-23T13:24:37.597Z,31.60
2019-01-23T13:27:08.483Z,33.70
2019-01-23T13:29:37.982Z,32.90
2019-01-23T13:32:07.908Z,33.07
2019-01-23T13:34:37.303Z,30.47
2019-01-23T13:37:07.183Z,31.13
2019-01-23T13:39:36.533Z,31.93
2019-01-23T13:42:05.997Z,32.20
2019-01-23T13:44:38.262Z,30.10
2019-01-23T13:47:07.762Z,31.50
2019-01-23T13:49:37.217Z,32.10
2019-01-23T13:52:06.753Z,31.80
2019-01-23T13:54:36.169Z,30.70
2019-01-23T13:57:05.611Z,31.50
2019-01-23T13:59:35.044Z,32.00
2019-01-23T14:02:04.581Z,34.20
2019-01-23T14:04:33.964Z,33.77
2019-01-23T14:07:03.386Z,32.70
2019-01-23T14:09:32.816Z,32.97
2019-01-23T14:12:02.167Z,31.00
2019-01-23T14:14:31.577Z,33.10
2019-01-23T14:17:00.952Z,31.87
2019-01-23T14:19:32.675Z,32.70
2019-01-23T14:22:01.286Z,32.67
2019-01-23T14:24:30.652Z,33.57
2019-01-23T14:27:00.350Z,32.17
2019-01-23T14:29:29.708Z,32.70
2019-01-23T14:32:03.397Z,33.00
2019-01-23T14:34:30.236Z,31.93
2019-01-23T14:36:59.658Z,32.30
2019-01-23T14:39:29.002Z,33.60
2019-01-23T14:41:58.469Z,33.63
2019-01-23T14:44:27.837Z,32.20
2019-01-23T14:46:57.287Z,31.97
2019-01-23T14:49:27.973Z,32.43
2019-01-23T14:51:57.367Z,31.57
2019-01-23T14:54:26.789Z,29.77
2019-01-23T14:56:56.192Z,31.20
2019-01-23T14:59:25.594Z,31.30
2019-01-23T15:01:54.955Z,30.23
2019-01-23T15:04:24.316Z,31.30
2019-01-23T15:06:53.707Z,29.93
2019-01-23T15:09:23.090Z,31.90
2019-01-23T15:11:52.463Z,33.03
2019-01-23T15:14:21.875Z,31.70
2019-01-23T15:16:51.298Z,31.33
2019-01-23T15:19:20.700Z,29.30
2019-01-23T15:21:50.098Z,30.30
2019-01-23T15:24:19.528Z,29.27
2019-01-23T15:26:48.976Z,29.07
2019-01-23T15:29:18.461Z,28.77
2019-01-23T15:31:47.970Z,29.67
2019-01-23T15:34:17.615Z,30.03
2019-01-23T15:36:47.334Z,30.10
2019-01-23T15:39:17.058Z,27.60
2019-01-23T15:41:46.438Z,28.23
2019-01-23T15:44:15.836Z,29.10
2019-01-23T15:46:45.309Z,28.70
2019-01-23T15:49:14.687Z,30.13
2019-01-23T15:51:44.200Z,30.20
2019-01-23T15:54:13.591Z,30.10
2019-01-23T15:56:45.277Z,28.80
2019-01-23T15:59:14.989Z,28.50
2019-01-23T16:01:44.464Z,30.07
2019-01-23T16:04:14.134Z,29.63
2019-01-23T16:06:43.672Z,28.10
2019-01-23T16:09:13.141Z,31.17
2019-01-23T16:11:42.541Z,31.13
2019-01-23T16:14:12.022Z,30.03
2019-01-23T16:16:44.847Z,29.03
2019-01-23T16:19:13.058Z,31.13
2019-01-23T16:21:45.766Z,31.57
2019-01-23T16:24:14.390Z,33.47
2019-01-23T16:26:43.883Z,30.73
2019-01-23T16:29:13.806Z,35.03
2019-01-23T16:31:43.445Z,35.47
2019-01-23T16:34:12.931Z,30.93
2019-01-23T16:36:42.371Z,32.50
2019-01-23T16:39:11.747Z,28.47
2019-01-23T16:41:41.113Z,28.30
2019-01-23T16:44:10.594Z,31.07
2019-01-23T16:46:39.958Z,29.87
2019-01-23T16:49:09.328Z,30.53
2019-01-23T16:51:38.836Z,29.67
2019-01-23T16:54:08.195Z,31.90
2019-01-23T16:56:37.587Z,32.23
2019-01-23T16:59:07.183Z,31.60
2019-01-23T17:01:36.576Z,30.97
2019-01-23T17:04:06.175Z,31.57
2019-01-23T17:06:35.599Z,30.27
2019-01-23T17:09:10.109Z,28.50
2019-01-23T17:11:39.610Z,28.67
2019-01-23T17:14:09.049Z,27.83
2019-01-23T17:16:38.595Z,29.47
2019-01-23T17:19:08.160Z,29.13
2019-01-23T17:21:37.554Z,30.83
2019-01-23T17:24:06.958Z,30.77
2019-01-23T17:26:36.437Z,29.57
2019-01-23T17:29:05.936Z,29.30
2019-01-23T17:31:35.303Z,30.10
2019-01-23T17:34:05.030Z,29.37
2019-01-23T17:36:34.412Z,31.50
2019-01-23T17:39:06.803Z,29.40
2019-01-23T17:41:36.171Z,29.53
2019-01-23T17:44:05.838Z,30.87
2019-01-23T17:46:35.464Z,30.47
2019-01-23T17:49:05.220Z,31.47
2019-01-23T17:51:34.595Z,30.33
2019-01-23T17:54:04.560Z,29.10
2019-01-23T17:56:36.161Z,29.50
2019-01-23T17:59:07.068Z,29.93
2019-01-23T18:01:36.544Z,30.87
2019-01-23T18:04:06.145Z,28.93
2019-01-23T18:06:35.750Z,26.90
2019-01-23T18:09:07.915Z,29.23
2019-01-23T18:11:37.283Z,28.53
2019-01-23T18:14:06.749Z,36.37
2019-01-23T18:16:36.119Z,31.53
2019-01-23T18:19:05.736Z,28.40
2019-01-23T18:21:35.102Z,29.50
2019-01-23T18:24:04.868Z,24.47
2019-01-23T18:26:37.719Z,27.97
2019-01-23T18:29:05.323Z,28.73
2019-01-23T18:31:34.850Z,29.43
2019-01-23T18:34:13.246Z,27.97
2019-01-23T18:37:05.301Z,29.73
2019-01-23T18:40:03.014Z,27.13
2019-01-23T18:42:35.444Z,26.53
2019-01-23T18:45:10.632Z,29.47
2019-01-23T18:47:57.959Z,29.40
2019-01-23T18:51:00.167Z,27.87
2019-01-23T18:53:29.619Z,28.60
2019-01-23T18:56:00.712Z,29.47
2019-01-23T18:58:30.275Z,28.30
2019-01-23T19:00:59.646Z,28.80
2019-01-23T19:03:30.052Z,28.87
2019-01-23T19:05:59.426Z,30.07
2019-01-23T19:08:28.832Z,29.20
2019-01-23T19:10:58.276Z,28.43
2019-01-23T19:13:27.733Z,29.43
2019-01-23T19:15:57.128Z,27.40
2019-01-23T19:18:26.666Z,28.63
2019-01-23T19:20:56.138Z,28.73
2019-01-23T19:23:27.519Z,27.50
2019-01-23T19:25:56.919Z,27.90
2019-01-23T19:28:26.437Z,28.57
2019-01-23T19:30:55.926Z,30.20
2019-01-23T19:33:25.356Z,27.47
2019-01-23T19:35:54.748Z,26.40
2019-01-23T19:38:24.122Z,29.20
2019-01-23T19:40:53.514Z,29.60
2019-01-23T19:43:22.876Z,26.57
2019-01-23T19:45:52.256Z,27.53
2019-01-23T19:48:21.767Z,27.90
2019-01-23T19:50:51.165Z,28.97
2019-01-23T19:53:20.564Z,29.03
2019-01-23T19:55:50.018Z,26.43
2019-01-23T19:58:19.391Z,28.73
2019-01-23T20:00:48.760Z,27.23
2019-01-23T20:03:20.531Z,28.30
2019-01-23T20:05:49.313Z,28.37
2019-01-23T20:08:18.830Z,27.33
2019-01-23T20:10:48.321Z,25.40
2019-01-23T20:13:17.847Z,26.97
2019-01-23T20:15:47.362Z,27.90
2019-01-23T20:18:16.748Z,26.37
2019-01-23T20:20:46.252Z,25.83
2019-01-23T20:23:15.607Z,26.63
2019-01-23T20:25:45.011Z,27.03
2019-01-23T20:28:14.395Z,26.80
2019-01-23T20:30:44.280Z,27.73
2019-01-23T20:33:13.832Z,27.17
2019-01-23T20:35:43.239Z,26.17
2019-01-23T20:38:12.668Z,26.90
2019-01-23T20:40:42.232Z,29.77
2019-01-23T20:43:11.746Z,26.07
2019-01-23T20:45:41.163Z,25.60
2019-01-23T20:48:10.580Z,26.60
2019-01-23T20:50:39.952Z,26.33
2019-01-23T20:53:09.464Z,23.97
2019-01-23T20:55:39.222Z,26.90
2019-01-23T20:58:08.941Z,25.23
2019-01-23T21:00:38.839Z,26.17
2019-01-23T21:03:10.994Z,25.10
2019-01-23T21:05:40.485Z,26.37
2019-01-23T21:08:09.932Z,25.53
2019-01-23T21:10:39.371Z,26.47
2019-01-23T21:13:08.766Z,26.43
2019-01-23T21:15:38.370Z,26.90
2019-01-23T21:18:07.810Z,28.23
2019-01-23T21:20:37.268Z,28.00
2019-01-23T21:23:06.813Z,26.37
2019-01-23T21:25:36.318Z,27.17
2019-01-23T21:28:05.846Z,25.57
2019-01-23T21:30:35.234Z,25.30
2019-01-23T21:33:04.914Z,26.70
2019-01-23T21:35:34.283Z,29.17
2019-01-23T21:38:03.742Z,27.07
2019-01-23T21:40:33.189Z,28.17
2019-01-23T21:43:02.847Z,29.23
2019-01-23T21:45:32.406Z,26.97
2019-01-23T21:48:01.890Z,27.80
2019-01-23T21:50:31.294Z,26.70
2019-01-23T21:53:00.726Z,28.13
2019-01-23T21:55:30.165Z,26.73
2019-01-23T21:57:59.687Z,27.67
2019-01-23T22:00:35.102Z,27.73
2019-01-23T22:03:06.719Z,29.67
2019-01-23T22:05:36.252Z,26.10
2019-01-23T22:08:05.852Z,28.33
2019-01-23T22:10:35.222Z,26.70
2019-01-23T22:13:05.061Z,27.30
2019-01-23T22:15:34.555Z,27.50
2019-01-23T22:18:04.810Z,28.20
2019-01-23T22:20:34.206Z,28.63
2019-01-23T22:23:05.429Z,27.33
2019-01-23T22:25:34.824Z,28.37
2019-01-23T22:28:04.658Z,26.17
2019-01-23T22:30:34.690Z,29.23
2019-01-23T22:33:07.126Z,28.13
2019-01-23T22:35:36.483Z,27.50
2019-01-23T22:38:06.510Z,26.73
2019-01-23T22:40:35.902Z,29.37
2019-01-23T22:43:05.410Z,25.60
2019-01-23T22:45:34.799Z,24.87
2019-01-23T22:48:05.940Z,26.53
2019-01-23T22:50:37.126Z,25.83
2019-01-23T22:53:06.645Z,26.40
2019-01-23T22:55:36.035Z,26.20
2019-01-23T22:58:05.653Z,25.87
2019-01-23T23:00:43.949Z,25.30
2019-01-23T23:03:14.658Z,26.50
2019-01-23T23:05:44.043Z,27.10
2019-01-23T23:08:13.490Z,26.80
2019-01-23T23:10:43.023Z,26.10
2019-01-23T23:13:12.484Z,25.97
2019-01-23T23:15:41.903Z,24.60
2019-01-23T23:18:11.433Z,26.53
2019-01-23T23:20:40.825Z,27.83
2019-01-23T23:23:10.210Z,25.87
2019-01-23T23:25:39.634Z,26.43
2019-01-23T23:28:09.252Z,26.43
2019-01-23T23:30:38.676Z,27.53
2019-01-23T23:33:08.156Z,26.37
2019-01-23T23:35:37.640Z,25.83
2019-01-23T23:38:07.090Z,26.27
2019-01-23T23:40:36.506Z,26.37
2019-01-23T23:43:06.911Z,25.97
2019-01-23T23:45:36.333Z,25.80
2019-01-23T23:48:05.869Z,26.50
2019-01-23T23:50:35.360Z,26.77
2019-01-23T23:53:04.870Z,26.83
2019-01-23T23:55:34.232Z,27.13
2019-01-23T23:58:03.722Z,26.80
